Time;durP1;ratioP1;P1;durP2;ratioP2;P2;SDS_P1;SDS_P2;PMS_P1;PMS_P2;Temp;Humidity;BMP_temperature;BMP_pressure;BME280_temperature;BME280_humidity;BME280_pressure;Samples;Min_cycle;Max_cycle;Signal;HPM_P1;HPM_P2
2023/06/24 00:03:07;;;;;;;3.50;1.83;;;;;;;16.88;57.39;100771.88;10390608;28;20056;-80
2023/06/24 00:08:09;;;;;;;5.05;2.38;;;;;;;16.79;57.39;100780.50;10389791;28;20057;-80
2023/06/24 00:13:12;;;;;;;4.00;2.28;;;;;;;16.75;57.71;100781.66;10388948;28;20045;-80
2023/06/24 00:18:44;;;;;;;3.97;2.40;;;;;;;16.60;59.11;100782.75;10403399;28;20064;-80
2023/06/24 00:23:49;;;;;;;4.60;2.28;;;;;;;16.47;58.16;100768.75;10407272;28;20857;-80
2023/06/24 00:28:51;;;;;;;6.30;2.47;;;;;;;16.43;58.44;100770.72;10392014;28;20132;-80
2023/06/24 00:33:53;;;;;;;3.72;2.35;;;;;;;16.36;58.55;100769.47;10411407;28;20685;-80
2023/06/24 00:38:56;;;;;;;4.18;2.30;;;;;;;16.33;58.52;100782.00;10410446;28;20045;-80
2023/06/24 00:43:59;;;;;;;4.38;2.38;;;;;;;16.33;58.61;100774.09;10411272;28;20034;-80
2023/06/24 00:49:02;;;;;;;3.80;2.08;;;;;;;16.22;58.54;100778.31;10397263;28;21121;-80
2023/06/24 00:54:05;;;;;;;3.85;2.28;;;;;;;16.14;58.81;100772.75;10380269;28;20052;-80
2023/06/24 00:59:07;;;;;;;3.83;2.33;;;;;;;16.11;59.08;100783.53;10378050;28;20060;-80
2023/06/24 01:04:09;;;;;;;3.90;2.17;;;;;;;16.08;59.03;100791.63;10410520;28;20052;-80
2023/06/24 01:09:12;;;;;;;4.15;2.58;;;;;;;15.97;59.17;100788.06;10374710;28;20064;-80
2023/06/24 01:14:14;;;;;;;3.75;2.35;;;;;;;15.91;59.44;100793.75;10389175;28;20056;-80
2023/06/24 01:26:13;;;;;;;4.93;2.67;;;;;;;15.76;60.36;100795.63;10411795;28;20041;-80
2023/06/24 01:31:45;;;;;;;3.80;2.30;;;;;;;15.74;60.44;100794.03;10404762;28;20048;-80
2023/06/24 01:37:07;;;;;;;4.43;2.55;;;;;;;15.77;60.66;100797.34;10405947;28;20124;-80
2023/06/24 01:42:13;;;;;;;4.28;2.20;;;;;;;15.75;59.93;100798.38;10392679;28;20058;-80
2023/06/24 01:47:21;;;;;;;5.15;2.50;;;;;;;15.69;60.26;100806.69;10395476;28;20423;-79
2023/06/24 01:52:44;;;;;;;5.00;2.63;;;;;;;15.67;60.66;100796.28;10391571;28;20060;-80
2023/06/24 01:57:49;;;;;;;4.72;2.47;;;;;;;15.62;60.21;100798.34;10407990;28;20052;-80
2023/06/24 02:02:53;;;;;;;5.10;2.30;;;;;;;15.58;60.09;100802.16;10377490;28;20037;-80
2023/06/24 02:07:56;;;;;;;4.40;2.38;;;;;;;15.55;60.13;100802.31;10413600;28;20448;-80
2023/06/24 02:12:59;;;;;;;4.55;2.33;;;;;;;15.46;60.54;100808.19;10399920;28;20049;-80
2023/06/24 02:18:04;;;;;;;4.85;2.40;;;;;;;15.40;60.41;100798.06;10393225;28;20085;-80
2023/06/24 02:23:09;;;;;;;3.92;2.17;;;;;;;15.31;60.55;100798.66;10414869;28;20077;-80
2023/06/24 02:28:11;;;;;;;4.70;2.38;;;;;;;15.30;60.45;100794.34;10401130;28;20402;-80
2023/06/24 02:33:14;;;;;;;4.22;2.28;;;;;;;15.27;60.38;100792.75;10383141;28;20150;-80
2023/06/24 02:38:18;;;;;;;4.40;2.72;;;;;;;15.21;60.62;100798.41;10381350;28;20591;-79
2023/06/24 02:43:21;;;;;;;4.70;2.63;;;;;;;15.17;60.60;100794.28;10393400;28;20056;-79
2023/06/24 02:48:24;;;;;;;3.90;2.60;;;;;;;15.07;60.80;100793.19;10383069;28;20049;-79
2023/06/24 02:53:27;;;;;;;4.22;2.58;;;;;;;15.02;60.96;100797.09;10397613;28;20417;-79
2023/06/24 02:58:31;;;;;;;4.53;2.40;;;;;;;14.97;60.84;100789.47;10396380;28;20425;-80
2023/06/24 03:03:42;;;;;;;5.27;2.90;;;;;;;14.86;61.09;100791.94;10384079;28;20049;-80
2023/06/24 03:08:48;;;;;;;4.10;2.25;;;;;;;14.89;61.26;100794.38;10371106;28;20056;-80
2023/06/24 03:13:51;;;;;;;4.57;2.50;;;;;;;14.77;60.88;100789.03;10388624;28;20076;-80
2023/06/24 03:18:57;;;;;;;3.92;2.38;;;;;;;14.82;61.35;100808.06;10379135;28;20505;-80
2023/06/24 03:24:00;;;;;;;4.43;2.50;;;;;;;14.89;61.28;100806.69;10399164;28;20091;-80
2023/06/24 03:29:03;;;;;;;5.68;2.55;;;;;;;14.93;61.15;100808.19;10405618;28;20041;-80
2023/06/24 03:34:06;;;;;;;4.18;2.50;;;;;;;14.96;60.92;100815.91;10401578;28;20053;-80
2023/06/24 03:39:34;;;;;;;4.43;2.40;;;;;;;14.97;61.71;100807.91;10386727;28;20525;-80
2023/06/24 03:44:36;;;;;;;4.90;2.70;;;;;;;14.98;60.95;100817.47;10405405;28;20044;-80
2023/06/24 03:49:38;;;;;;;4.43;2.50;;;;;;;15.01;61.21;100819.09;10387830;28;20103;-80
2023/06/24 03:54:40;;;;;;;4.30;2.42;;;;;;;15.14;60.63;100827.91;10373424;28;20056;-79
2023/06/24 03:59:42;;;;;;;4.32;2.60;;;;;;;15.26;60.39;100821.84;10405675;28;20728;-80
2023/06/24 04:04:43;;;;;;;5.55;2.40;;;;;;;15.27;60.64;100824.38;10397785;28;20092;-80
2023/06/24 04:09:45;;;;;;;4.10;2.40;;;;;;;15.53;60.62;100821.84;10394191;28;20041;-80
2023/06/24 04:14:47;;;;;;;3.67;2.22;;;;;;;17.18;57.83;100813.75;10394153;28;20045;-80
2023/06/24 04:19:49;;;;;;;5.30;2.40;;;;;;;18.86;54.84;100813.03;10417291;28;20529;-79
2023/06/24 04:24:51;;;;;;;4.07;2.40;;;;;;;20.09;51.80;100811.63;10419398;28;20038;-80
2023/06/24 04:29:53;;;;;;;4.20;2.47;;;;;;;21.33;50.20;100806.78;10396739;28;20095;-81
2023/06/24 04:34:54;;;;;;;3.25;2.03;;;;;;;22.57;47.47;100814.59;10415248;28;20515;-80
2023/06/24 04:39:57;;;;;;;3.25;2.20;;;;;;;23.47;45.66;100807.44;10398143;28;20057;-80
2023/06/24 04:44:58;;;;;;;6.00;2.13;;;;;;;24.29;44.16;100799.91;10400851;28;20068;-81
2023/06/24 04:50:00;;;;;;;3.10;2.03;;;;;;;25.31;42.39;100800.63;10417164;28;20041;-80
2023/06/24 04:55:02;;;;;;;3.78;2.22;;;;;;;26.02;41.40;100797.34;10378571;28;20514;-80
2023/06/24 05:00:05;;;;;;;4.10;2.10;;;;;;;26.83;39.67;100800.63;10379683;28;20579;-80
2023/06/24 05:05:07;;;;;;;4.63;2.25;;;;;;;27.96;38.13;100798.84;10406330;28;20045;-81
2023/06/24 05:10:09;;;;;;;3.67;2.03;;;;;;;28.84;36.74;100793.47;10397619;28;20568;-81
2023/06/24 05:15:11;;;;;;;2.83;1.75;;;;;;;29.16;35.60;100793.03;10374299;28;20555;-81
2023/06/24 05:20:13;;;;;;;3.25;1.92;;;;;;;29.27;35.15;100791.69;10390345;28;20056;-81
2023/06/24 05:25:15;;;;;;;3.42;1.98;;;;;;;30.33;34.17;100793.25;10413220;28;20457;-81
2023/06/24 05:30:17;;;;;;;3.70;1.90;;;;;;;30.59;32.77;100798.81;10415272;28;20045;-82
2023/06/24 05:35:19;;;;;;;3.35;2.00;;;;;;;27.64;35.42;100803.63;10381958;28;20049;-80
2023/06/24 05:40:21;;;;;;;5.07;2.00;;;;;;;25.34;38.24;100812.88;10402492;28;20054;-81
2023/06/24 05:45:22;;;;;;;3.72;2.03;;;;;;;23.97;40.21;100818.38;10393553;28;20120;-81
2023/06/24 05:50:24;;;;;;;3.60;2.10;;;;;;;23.21;41.48;100816.31;10404986;28;20054;-81
2023/06/24 05:55:26;;;;;;;3.70;2.13;;;;;;;22.53;42.84;100826.53;10414081;28;20042;-80
2023/06/24 06:00:28;;;;;;;4.80;2.72;;;;;;;22.11;43.55;100825.22;10387602;28;20060;-80
2023/06/24 06:05:30;;;;;;;4.25;2.72;;;;;;;22.35;43.44;100814.09;10378607;28;20057;-80
2023/06/24 06:10:32;;;;;;;4.25;2.50;;;;;;;22.22;43.69;100822.41;10391914;28;20041;-80
2023/06/24 06:15:34;;;;;;;4.18;2.40;;;;;;;22.06;43.92;100824.00;10374338;28;20105;-79
2023/06/24 06:20:36;;;;;;;4.15;2.20;;;;;;;22.23;44.44;100824.06;10406123;28;20048;-80
2023/06/24 06:25:38;;;;;;;3.53;2.08;;;;;;;22.41;44.33;100814.34;10409520;28;20611;-81
2023/06/24 06:30:40;;;;;;;4.70;2.70;;;;;;;22.69;44.02;100805.41;10411734;28;20080;-80
2023/06/24 06:35:42;;;;;;;3.90;2.40;;;;;;;23.07;43.75;100814.19;10393186;28;20380;-80
2023/06/24 06:40:44;;;;;;;4.43;2.47;;;;;;;23.34;43.32;100808.78;10395424;28;20400;-81
2023/06/24 06:45:45;;;;;;;3.97;2.40;;;;;;;24.18;42.87;100810.03;10387497;28;20044;-80
2023/06/24 06:50:47;;;;;;;4.95;2.38;;;;;;;25.19;41.56;100812.66;10395335;28;20136;-80
2023/06/24 06:55:49;;;;;;;4.13;2.40;;;;;;;25.97;40.83;100800.53;10379436;28;20072;-81
2023/06/24 07:00:51;;;;;;;3.92;2.33;;;;;;;27.11;39.58;100808.00;10377964;28;20048;-80
2023/06/24 07:05:53;;;;;;;3.85;2.08;;;;;;;28.41;37.84;100799.72;10406681;28;20049;-80
2023/06/24 07:10:55;;;;;;;3.88;2.35;;;;;;;29.16;36.80;100793.03;10398363;28;20515;-81
2023/06/24 07:15:57;;;;;;;3.75;2.22;;;;;;;29.99;35.33;100781.59;10393652;28;20045;-81
2023/06/24 07:21:00;;;;;;;5.00;2.60;;;;;;;30.50;33.65;100778.41;10387114;28;20045;-80
2023/06/24 07:26:02;;;;;;;2.97;1.92;;;;;;;30.97;33.62;100780.28;10389092;28;20513;-80
2023/06/24 07:31:05;;;;;;;4.40;2.40;;;;;;;31.61;33.02;100782.50;10392206;28;20048;-81
2023/06/24 07:36:07;;;;;;;4.20;2.60;;;;;;;30.74;32.48;100781.63;10400802;28;20411;-81
2023/06/24 07:41:12;;;;;;;4.60;2.55;;;;;;;30.86;32.28;100772.75;10373761;28;20063;-80
2023/06/24 07:46:14;;;;;;;4.95;2.25;;;;;;;30.53;32.01;100775.31;10377814;28;20123;-81
2023/06/24 07:51:18;;;;;;;5.40;2.55;;;;;;;30.65;31.97;100778.28;10392317;28;20049;-80
2023/06/24 07:56:19;;;;;;;3.95;2.40;;;;;;;30.36;31.92;100779.34;10383489;28;20060;-81
2023/06/24 08:01:21;;;;;;;3.95;2.20;;;;;;;31.19;31.57;100773.69;10388778;28;20425;-81
2023/06/24 08:06:24;;;;;;;3.47;2.10;;;;;;;32.22;30.63;100771.22;10400405;28;20045;-81
2023/06/24 08:11:26;;;;;;;3.90;2.10;;;;;;;32.06;30.40;100758.16;10392736;28;20524;-82
2023/06/24 08:16:28;;;;;;;4.22;2.40;;;;;;;32.21;29.77;100758.72;10401682;28;20048;-80
2023/06/24 08:21:32;;;;;;;3.40;1.98;;;;;;;32.18;30.06;100761.88;10392811;28;20060;-81
2023/06/24 08:26:37;;;;;;;3.40;2.03;;;;;;;32.69;29.50;100751.09;10386584;28;20581;-81
2023/06/24 08:31:42;;;;;;;;;;;;;;;33.13;27.92;100752.09;10367756;28;20037;-81
2023/06/24 08:36:44;;;;;;;3.53;1.98;;;;;;;32.74;29.36;100755.84;10407787;28;19924;-82
2023/06/24 08:41:46;;;;;;;3.15;1.90;;;;;;;32.24;29.89;100760.19;10378712;28;20091;-83
2023/06/24 08:46:48;;;;;;;3.05;1.85;;;;;;;31.99;30.04;100754.63;10415520;28;20048;-82
2023/06/24 08:52:16;;;;;;;3.38;2.13;;;;;;;32.09;28.58;100743.34;10407492;28;20049;-82
2023/06/24 08:57:18;;;;;;;3.28;2.10;;;;;;;32.49;29.24;100747.66;10397257;28;20072;-82
2023/06/24 09:02:21;;;;;;;2.97;1.90;;;;;;;32.36;29.02;100742.22;10395614;28;20155;-81
2023/06/24 09:07:30;;;;;;;4.25;2.30;;;;;;;32.22;27.75;100732.50;10372809;28;20057;-81
2023/06/24 09:12:36;;;;;;;3.30;2.08;;;;;;;31.88;28.55;100736.28;10383306;28;20056;-81
2023/06/24 09:17:51;;;;;;;3.77;2.30;;;;;;;32.34;27.99;100732.66;10401897;28;20053;-81
2023/06/24 09:23:01;;;;;;;4.80;2.17;;;;;;;32.58;26.57;100727.38;10387582;28;20049;-85
2023/06/24 09:28:03;;;;;;;5.47;2.88;;;;;;;32.66;27.16;100713.59;10408493;28;20040;-86
2023/06/24 09:33:05;;;;;;;3.60;2.20;;;;;;;32.12;27.66;100710.47;10403890;28;20482;-86
2023/06/24 09:38:07;;;;;;;3.72;2.22;;;;;;;32.06;27.42;100704.03;10399157;28;20041;-88
2023/06/24 09:43:20;;;;;;;3.75;2.15;;;;;;;32.63;26.13;100695.06;10401881;28;20379;-87
2023/06/24 09:48:22;;;;;;;4.68;2.40;;;;;;;32.00;26.43;100693.22;10405526;28;20509;-88
2023/06/24 09:53:24;;;;;;;4.25;2.45;;;;;;;31.88;26.76;100689.47;10431413;28;20449;-89
2023/06/24 09:58:28;;;;;;;4.93;2.35;;;;;;;31.74;27.37;100688.66;10403040;28;20146;-89
2023/06/24 10:03:32;;;;;;;4.22;2.22;;;;;;;31.48;27.34;100680.53;10407842;28;20482;-88
2023/06/24 10:08:35;;;;;;;3.30;1.98;;;;;;;31.37;27.53;100675.78;10386746;28;20113;-89
2023/06/24 10:13:37;;;;;;;3.42;1.90;;;;;;;31.01;27.74;100680.72;10394150;28;20053;-89
2023/06/24 10:18:41;;;;;;;3.53;2.03;;;;;;;31.16;27.69;100665.16;10380876;28;20045;-89
2023/06/24 10:23:55;;;;;;;3.22;1.95;;;;;;;31.57;26.80;100657.69;10402295;28;20053;-89
2023/06/24 10:29:06;;;;;;;4.80;1.90;;;;;;;31.32;26.81;100654.78;10407145;28;20051;-88
2023/06/24 10:34:20;;;;;;;3.47;2.10;;;;;;;30.58;26.85;100643.22;10420506;28;20055;-88
2023/06/24 10:39:48;;;;;;;3.70;1.90;;;;;;;31.11;26.31;100638.75;10420048;28;20132;-90
2023/06/24 10:45:00;;;;;;;4.70;2.00;;;;;;;30.76;26.83;100641.81;10414517;28;20304;-86
2023/06/24 10:50:04;;;;;;;3.65;2.00;;;;;;;30.84;28.03;100636.22;10409000;28;20041;-88
2023/06/24 10:55:08;;;;;;;3.97;2.00;;;;;;;30.84;27.69;100634.38;10397648;28;20040;-87
2023/06/24 11:00:37;;;;;;;3.20;1.95;;;;;;;30.11;27.77;100635.16;10405539;28;20069;-86
2023/06/24 11:05:41;;;;;;;2.55;1.65;;;;;;;29.84;28.58;100625.25;10380835;28;20484;-87
2023/06/24 11:10:47;;;;;;;3.30;2.00;;;;;;;30.14;28.37;100618.56;10402247;28;20510;-86
2023/06/24 11:15:53;;;;;;;4.20;2.05;;;;;;;29.85;27.68;100608.03;10415958;28;20112;-87
2023/06/24 11:20:55;;;;;;;3.47;1.85;;;;;;;29.92;28.67;100610.75;10417360;28;20048;-86
2023/06/24 11:26:03;;;;;;;3.22;1.80;;;;;;;30.33;27.27;100606.19;10413898;28;20056;-87
2023/06/24 11:31:08;;;;;;;3.17;1.90;;;;;;;30.09;27.07;100595.94;10423394;28;20030;-87
2023/06/24 11:36:17;;;;;;;3.70;1.77;;;;;;;30.29;26.18;100600.38;10415866;28;20414;-87
2023/06/24 11:41:21;;;;;;;3.13;2.10;;;;;;;29.64;28.12;100590.06;10428408;28;20072;-86
2023/06/24 11:46:27;;;;;;;3.72;2.00;;;;;;;29.35;28.32;100594.84;10430613;28;20059;-87
2023/06/24 11:51:30;;;;;;;2.42;1.60;;;;;;;29.03;29.23;100589.00;10386286;28;20080;-87
2023/06/24 11:56:36;;;;;;;3.28;1.88;;;;;;;28.96;29.53;100581.91;10417032;28;20042;-86
2023/06/24 12:01:43;;;;;;;3.25;1.98;;;;;;;28.72;30.07;100580.44;10394453;28;20421;-87
2023/06/24 12:06:46;;;;;;;3.67;1.95;;;;;;;28.49;29.86;100571.72;10413561;28;20050;-87
2023/06/24 12:11:48;;;;;;;2.85;1.70;;;;;;;28.52;29.76;100560.59;10408673;28;20127;-87
2023/06/24 12:16:50;;;;;;;3.63;1.92;;;;;;;28.34;30.32;100556.66;10380910;28;20149;-87
2023/06/24 12:21:53;;;;;;;2.78;1.70;;;;;;;28.33;29.56;100552.28;10396618;28;20049;-87
2023/06/24 12:26:57;;;;;;;3.78;1.98;;;;;;;28.83;29.27;100549.44;10389730;28;20033;-87
2023/06/24 12:32:05;;;;;;;4.50;2.10;;;;;;;28.96;28.67;100536.97;10395176;28;20107;-88
2023/06/24 12:37:07;;;;;;;2.28;1.58;;;;;;;29.07;28.53;100536.41;10403473;28;20081;-87
2023/06/24 12:42:10;;;;;;;4.00;1.90;;;;;;;28.45;29.06;100535.47;10403663;28;20532;-87
2023/06/24 12:47:13;;;;;;;2.85;1.75;;;;;;;28.70;29.16;100534.03;10387369;28;20053;-86
2023/06/24 12:52:17;;;;;;;5.15;2.08;;;;;;;28.99;28.49;100527.69;10405514;28;20411;-86
2023/06/24 12:57:43;;;;;;;3.20;1.90;;;;;;;28.58;28.59;100524.81;10418686;28;20044;-87
2023/06/24 13:02:48;;;;;;;2.58;1.65;;;;;;;28.59;29.22;100521.09;10381269;28;20056;-86
2023/06/24 13:07:51;;;;;;;3.72;1.95;;;;;;;28.80;29.03;100517.53;10377334;28;20140;-88
2023/06/24 13:12:55;;;;;;;2.92;1.80;;;;;;;28.69;29.19;100516.22;10387453;28;20049;-87
2023/06/24 13:17:58;;;;;;;3.00;1.80;;;;;;;28.96;28.26;100512.75;10380266;28;20042;-87
2023/06/24 13:23:02;;;;;;;3.83;1.92;;;;;;;29.15;27.99;100507.69;10378099;28;20121;-87
2023/06/24 13:28:09;;;;;;;2.80;1.80;;;;;;;29.54;28.03;100503.34;10372053;28;20518;-87
2023/06/24 13:33:12;;;;;;;3.33;2.00;;;;;;;29.27;28.65;100496.16;10394466;28;20045;-87
2023/06/24 13:38:16;;;;;;;4.32;1.70;;;;;;;29.02;28.41;100500.34;10376528;28;20063;-87
2023/06/24 13:43:19;;;;;;;3.80;1.90;;;;;;;29.44;28.35;100494.00;10359403;28;20045;-87
2023/06/24 13:48:25;;;;;;;4.22;1.80;;;;;;;29.54;28.23;100494.47;10372501;28;20034;-87
2023/06/24 13:53:28;;;;;;;2.47;1.58;;;;;;;29.88;28.07;100486.28;10369657;28;20049;-87
2023/06/24 13:58:31;;;;;;;3.10;1.80;;;;;;;29.86;28.03;100477.56;10384352;28;20140;-87
2023/06/24 14:03:35;;;;;;;2.90;1.83;;;;;;;29.95;26.86;100478.25;10400620;28;20056;-86
2023/06/24 14:08:38;;;;;;;2.97;1.80;;;;;;;29.57;27.53;100467.91;10396194;28;20509;-86
2023/06/24 14:13:41;;;;;;;2.90;1.83;;;;;;;30.04;27.36;100464.34;10419539;28;20053;-87
2023/06/24 14:18:43;;;;;;;3.25;1.70;;;;;;;30.14;27.20;100470.19;10410387;28;20090;-88
2023/06/24 14:23:52;;;;;;;2.97;1.80;;;;;;;30.01;26.19;100462.06;10387552;28;20104;-87
2023/06/24 14:29:01;;;;;;;2.83;1.80;;;;;;;30.15;26.86;100461.03;10407945;28;20045;-87
2023/06/24 14:34:04;;;;;;;2.20;1.60;;;;;;;30.44;26.75;100446.31;10402584;28;20041;-87
2023/06/24 14:39:05;;;;;;;2.95;1.70;;;;;;;30.31;26.70;100449.03;10411802;28;20038;-87
2023/06/24 14:44:08;;;;;;;3.53;1.80;;;;;;;30.33;26.60;100434.31;10405838;28;20509;-87
2023/06/24 14:49:10;;;;;;;2.83;1.70;;;;;;;30.70;26.65;100434.72;10417183;28;20571;-87
2023/06/24 14:54:20;;;;;;;4.10;1.85;;;;;;;30.72;25.82;100435.34;10402840;28;20053;-87
2023/06/24 14:59:23;;;;;;;3.25;1.70;;;;;;;30.41;26.89;100430.56;10413074;28;20107;-87
2023/06/24 15:04:28;;;;;;;4.10;2.15;;;;;;;30.37;27.12;100426.59;10406459;28;20091;-87
2023/06/24 15:09:34;;;;;;;3.22;1.77;;;;;;;30.68;27.43;100430.34;10413415;28;20098;-86
2023/06/24 15:14:41;;;;;;;5.82;1.83;;;;;;;30.95;27.39;100419.47;10416898;28;20044;-87
2023/06/24 15:19:44;;;;;;;3.28;1.80;;;;;;;30.77;26.92;100414.75;10396017;28;20073;-87
2023/06/24 15:24:46;;;;;;;3.00;1.73;;;;;;;30.98;26.79;100419.94;10421030;28;20033;-87
2023/06/24 15:29:47;;;;;;;5.60;2.00;;;;;;;31.07;26.69;100410.53;10394934;28;20048;-87
2023/06/24 15:34:51;;;;;;;3.05;1.60;;;;;;;31.40;26.55;100413.97;10413768;28;20048;-87
2023/06/24 15:39:53;;;;;;;3.47;1.90;;;;;;;31.11;26.42;100405.56;10395458;28;20064;-88
2023/06/24 15:44:59;;;;;;;3.97;1.73;;;;;;;30.94;25.23;100402.47;10412348;28;20494;-87
2023/06/24 15:50:02;;;;;;;3.00;1.80;;;;;;;30.56;26.83;100399.63;10378280;28;20657;-87
2023/06/24 15:55:18;;;;;;;3.38;1.90;;;;;;;30.22;28.11;100404.38;10399195;28;20053;-87
2023/06/24 16:00:21;;;;;;;3.58;2.00;;;;;;;29.75;28.45;100403.47;10395904;28;20608;-88
2023/06/24 16:05:27;;;;;;;3.47;2.00;;;;;;;29.49;27.93;100395.31;10400399;28;20489;-86
2023/06/24 16:10:34;;;;;;;3.40;1.75;;;;;;;29.16;28.03;100388.94;10389574;28;20052;-86
2023/06/24 16:15:39;;;;;;;3.07;2.00;;;;;;;28.93;28.70;100375.78;10410712;28;20071;-85
2023/06/24 16:20:44;;;;;;;2.72;1.80;;;;;;;28.76;28.71;100382.50;10406733;28;20059;-86
2023/06/24 16:25:48;;;;;;;6.18;2.08;;;;;;;28.83;28.61;100377.97;10412246;28;21545;-85
2023/06/24 16:30:50;;;;;;;3.10;1.63;;;;;;;28.93;28.17;100370.41;10420951;28;20053;-85
2023/06/24 16:35:57;;;;;;;3.17;1.90;;;;;;;29.22;28.77;100373.81;10398340;28;20052;-85
2023/06/24 16:41:00;;;;;;;3.28;1.92;;;;;;;29.27;27.83;100366.00;10419293;28;20517;-85
2023/06/24 16:46:09;;;;;;;4.18;1.95;;;;;;;29.10;26.99;100373.59;10403536;28;20041;-85
2023/06/24 16:51:11;;;;;;;2.70;1.70;;;;;;;28.85;28.05;100375.94;10416235;28;20049;-85
2023/06/24 16:56:18;;;;;;;3.92;1.92;;;;;;;29.06;28.37;100367.78;10403663;28;20926;-85
2023/06/24 17:01:20;;;;;;;2.80;1.77;;;;;;;29.23;28.19;100372.81;10378200;28;20061;-85
2023/06/24 17:06:25;;;;;;;3.30;2.00;;;;;;;29.26;27.97;100367.84;10395708;28;20641;-85
2023/06/24 17:11:28;;;;;;;3.58;2.10;;;;;;;29.39;28.15;100367.09;10390720;28;20061;-85
2023/06/24 17:16:34;;;;;;;3.25;1.70;;;;;;;29.60;28.25;100361.56;10365711;28;20050;-85
2023/06/24 17:21:37;;;;;;;3.35;1.73;;;;;;;29.41;27.76;100359.63;10366768;28;20057;-85
2023/06/24 17:26:40;;;;;;;2.80;1.70;;;;;;;29.08;28.34;100365.72;10388447;28;20060;-86
2023/06/24 17:31:43;;;;;;;3.75;2.10;;;;;;;28.86;28.44;100366.00;10369482;28;20041;-85
2023/06/24 17:36:47;;;;;;;3.47;2.05;;;;;;;28.53;29.71;100364.94;10381447;28;20049;-86
2023/06/24 17:41:53;;;;;;;4.50;2.25;;;;;;;28.37;29.76;100366.09;10362322;28;20057;-87
2023/06/24 17:46:56;;;;;;;3.58;2.20;;;;;;;28.16;30.24;100371.47;10384092;28;20137;-87
2023/06/24 17:58:19;;;;;;;3.15;1.85;;;;;;;28.17;31.35;100362.38;10389527;28;20681;-87
2023/06/24 18:03:23;;;;;;;3.03;1.90;;;;;;;28.01;31.49;100359.97;10366431;28;20106;-87
2023/06/24 18:08:26;;;;;;;3.83;1.80;;;;;;;27.94;31.56;100359.91;10335704;28;20054;-87
2023/06/24 18:13:33;;;;;;;3.60;2.13;;;;;;;27.81;32.19;100361.66;10327271;28;20046;-86
2023/06/24 18:18:36;;;;;;;2.72;1.70;;;;;;;27.68;32.53;100356.09;10335536;28;20046;-86
2023/06/24 18:23:39;;;;;;;3.83;1.90;;;;;;;27.60;32.33;100362.44;10335614;28;20657;-87
2023/06/24 18:28:44;;;;;;;3.10;1.80;;;;;;;27.56;32.51;100357.63;10331360;28;20042;-87
2023/06/24 18:33:53;;;;;;;3.60;1.90;;;;;;;27.48;32.45;100353.22;10352857;28;20054;-86
2023/06/24 18:39:04;;;;;;;3.30;1.83;;;;;;;27.41;32.93;100347.78;10336614;28;20052;-87
2023/06/24 18:44:13;;;;;;;3.63;2.10;;;;;;;27.07;34.30;100350.25;10341697;28;20120;-86
2023/06/24 18:49:17;;;;;;;3.55;2.00;;;;;;;26.48;34.96;100348.56;10339007;28;20112;-87
2023/06/24 18:54:24;;;;;;;3.75;2.08;;;;;;;26.15;35.60;100355.25;10337864;28;20061;-87
2023/06/24 18:59:27;;;;;;;3.28;1.80;;;;;;;25.85;35.48;100348.94;10351710;28;20079;-87
2023/06/24 19:04:31;;;;;;;3.30;2.03;;;;;;;25.72;36.30;100348.69;10394198;28;20071;-86
2023/06/24 19:09:35;;;;;;;3.63;2.00;;;;;;;25.69;36.58;100344.53;10401152;28;20033;-85
2023/06/24 19:14:40;;;;;;;4.15;2.00;;;;;;;25.64;37.78;100349.59;10398500;28;20045;-86
2023/06/24 19:19:43;;;;;;;4.68;2.13;;;;;;;25.20;38.63;100351.19;10410473;28;20429;-86
2023/06/24 19:24:46;;;;;;;4.82;2.22;;;;;;;24.96;39.52;100346.78;10413902;28;20052;-86
2023/06/24 19:29:49;;;;;;;3.38;2.08;;;;;;;24.82;39.82;100346.66;10377343;28;20137;-86
2023/06/24 19:35:07;;;;;;;3.35;2.10;;;;;;;24.70;40.33;100340.00;10400468;28;20049;-84
2023/06/24 19:40:10;;;;;;;3.50;2.20;;;;;;;24.56;41.10;100341.53;10402518;28;20055;-84
2023/06/24 19:45:27;;;;;;;3.80;2.33;;;;;;;24.32;43.39;100351.44;10416654;28;20048;-84
2023/06/24 19:50:32;;;;;;;3.58;2.28;;;;;;;24.03;42.86;100352.78;10378319;28;20110;-84
2023/06/24 19:55:34;;;;;;;3.78;2.13;;;;;;;23.77;43.21;100362.81;10396373;28;20053;-84
2023/06/24 20:00:36;;;;;;;3.53;2.20;;;;;;;23.59;43.78;100356.78;10395105;28;20057;-84
2023/06/24 20:05:40;;;;;;;3.67;2.35;;;;;;;23.41;44.32;100372.91;10381089;28;20549;-84
2023/06/24 20:10:42;;;;;;;4.38;2.30;;;;;;;23.24;44.59;100370.34;10383768;28;20084;-84
2023/06/24 20:15:45;;;;;;;3.78;2.00;;;;;;;23.08;44.95;100368.47;10404135;28;20287;-85
2023/06/24 20:20:50;;;;;;;3.90;2.30;;;;;;;22.92;45.80;100370.22;10395108;28;20052;-85
2023/06/24 20:25:53;;;;;;;4.88;2.40;;;;;;;22.73;45.87;100373.94;10409444;28;20045;-86
2023/06/24 20:31:02;;;;;;;4.82;2.47;;;;;;;22.52;46.79;100368.97;10402159;28;20057;-86
2023/06/24 20:36:04;;;;;;;3.65;2.35;;;;;;;22.34;46.99;100364.69;10419564;28;20124;-86
2023/06/24 20:41:06;;;;;;;4.10;2.35;;;;;;;22.16;47.35;100363.88;10402675;28;20144;-86
2023/06/24 20:46:08;;;;;;;3.97;2.40;;;;;;;21.79;48.03;100366.69;10419702;28;20075;-86
2023/06/24 20:51:10;;;;;;;3.17;2.20;;;;;;;21.78;48.10;100359.72;10388411;28;20049;-86
2023/06/24 20:56:12;;;;;;;3.78;2.47;;;;;;;21.63;48.56;100363.91;10412513;28;20071;-86
2023/06/24 21:01:14;;;;;;;4.13;2.42;;;;;;;21.61;48.73;100364.06;10381861;28;20054;-86
2023/06/24 21:06:16;;;;;;;4.68;2.63;;;;;;;21.46;48.97;100360.22;10380391;28;20553;-87
2023/06/24 21:11:18;;;;;;;4.57;2.70;;;;;;;21.43;49.10;100365.88;10380214;28;20403;-85
2023/06/24 21:16:20;;;;;;;5.55;2.70;;;;;;;21.27;49.59;100370.13;10381788;28;20500;-86
2023/06/24 21:21:22;;;;;;;4.75;2.50;;;;;;;21.14;49.96;100370.47;10381600;28;20049;-86
2023/06/24 21:26:23;;;;;;;7.13;2.63;;;;;;;21.07;50.11;100370.22;10371761;28;20045;-86
2023/06/24 21:31:25;;;;;;;5.45;2.30;;;;;;;20.89;50.37;100369.34;10377018;28;20107;-85
2023/06/24 21:36:27;;;;;;;5.15;2.63;;;;;;;20.76;50.57;100365.34;10380882;28;20070;-85
2023/06/24 21:41:29;;;;;;;4.40;2.60;;;;;;;20.72;50.95;100364.78;10367237;28;20049;-85
2023/06/24 21:46:31;;;;;;;3.45;2.25;;;;;;;20.69;50.98;100367.75;10371569;28;20081;-86
2023/06/24 21:51:34;;;;;;;4.82;2.78;;;;;;;20.60;51.34;100371.25;10372665;28;20669;-86
2023/06/24 21:56:37;;;;;;;5.50;2.78;;;;;;;20.50;51.54;100374.94;10370470;28;20096;-86
2023/06/24 22:01:39;;;;;;;4.30;2.70;;;;;;;20.46;51.69;100371.69;10370608;28;20046;-86
2023/06/24 22:06:42;;;;;;;4.70;2.80;;;;;;;20.37;51.70;100375.22;10370168;28;20069;-86
2023/06/24 22:11:45;;;;;;;4.45;2.47;;;;;;;20.30;51.85;100374.13;10368035;28;20053;-86
2023/06/24 22:16:46;;;;;;;4.25;2.63;;;;;;;20.27;51.93;100375.22;10368600;28;20087;-86
2023/06/24 22:21:48;;;;;;;3.78;2.50;;;;;;;20.05;52.14;100380.84;10368388;28;20091;-86
2023/06/24 22:26:50;;;;;;;4.30;2.53;;;;;;;20.01;52.66;100374.16;10361532;28;20652;-86
2023/06/24 22:31:52;;;;;;;5.55;2.40;;;;;;;19.98;52.39;100368.28;10363508;28;20061;-86
2023/06/24 22:36:54;;;;;;;4.35;2.88;;;;;;;19.81;52.70;100376.91;10383528;28;20454;-86
2023/06/24 22:41:56;;;;;;;6.25;3.03;;;;;;;19.72;53.42;100380.41;10376983;28;20048;-86
2023/06/24 22:46:58;;;;;;;5.00;3.00;;;;;;;19.70;53.53;100382.38;10376452;28;20037;-86
2023/06/24 22:52:00;;;;;;;5.80;2.60;;;;;;;19.58;53.93;100389.63;10372678;28;20049;-85
2023/06/24 22:57:02;;;;;;;4.50;2.85;;;;;;;19.38;54.13;100383.44;10357439;28;20052;-85
2023/06/24 23:02:05;;;;;;;4.57;2.53;;;;;;;19.22;54.55;100380.47;10408226;28;20538;-85
2023/06/24 23:07:07;;;;;;;4.78;2.85;;;;;;;19.18;54.24;100388.84;10412617;28;20550;-85
2023/06/24 23:12:10;;;;;;;5.90;2.97;;;;;;;19.15;54.32;100379.34;10417437;28;20099;-85
2023/06/24 23:17:17;;;;;;;4.55;2.65;;;;;;;18.88;54.90;100378.22;10397670;28;20134;-85
2023/06/24 23:22:41;;;;;;;4.05;2.50;;;;;;;18.78;56.73;100387.97;10398170;28;20084;-85
2023/06/24 23:27:44;;;;;;;6.00;3.08;;;;;;;18.51;55.66;100386.72;10395469;28;20111;-86
2023/06/24 23:32:46;;;;;;;4.85;2.70;;;;;;;18.28;56.25;100382.53;10396456;28;20048;-85